sensor_id;sensor_type;location;lat;lon;timestamp;P1;durP1;ratioP1;P2;durP2;ratioP2
23376;SDS011;14353;46.070;13.222;2023-04-12T00:00:00;3.28;;;2.53;;
23376;SDS011;14353;46.070;13.222;2023-04-12T00:02:26;2.90;;;2.65;;
23376;SDS011;14353;46.070;13.222;2023-04-12T00:04:52;2.83;;;2.45;;
23376;SDS011;14353;46.070;13.222;2023-04-12T00:07:24;3.30;;;2.85;;
23376;SDS011;14353;46.070;13.222;2023-04-12T00:09:51;3.05;;;2.80;;
23376;SDS011;14353;46.070;13.222;2023-04-12T00:12:17;3.28;;;2.97;;
23376;SDS011;14353;46.070;13.222;2023-04-12T00:14:43;3.47;;;2.70;;
23376;SDS011;14353;46.070;13.222;2023-04-12T00:17:10;3.17;;;2.88;;
23376;SDS011;14353;46.070;13.222;2023-04-12T00:19:36;3.15;;;2.83;;
23376;SDS011;14353;46.070;13.222;2023-04-12T00:22:06;3.00;;;2.70;;
23376;SDS011;14353;46.070;13.222;2023-04-12T00:24:32;2.80;;;2.58;;
23376;SDS011;14353;46.070;13.222;2023-04-12T00:26:58;3.03;;;2.72;;
23376;SDS011;14353;46.070;13.222;2023-04-12T00:29:26;3.30;;;2.63;;
23376;SDS011;14353;46.070;13.222;2023-04-12T00:31:52;3.10;;;2.80;;
23376;SDS011;14353;46.070;13.222;2023-04-12T00:34:18;3.22;;;2.90;;
23376;SDS011;14353;46.070;13.222;2023-04-12T00:36:44;3.10;;;2.80;;
23376;SDS011;14353;46.070;13.222;2023-04-12T00:39:10;3.28;;;2.95;;
23376;SDS011;14353;46.070;13.222;2023-04-12T00:41:36;3.15;;;2.75;;
23376;SDS011;14353;46.070;13.222;2023-04-12T00:44:01;4.30;;;3.08;;
23376;SDS011;14353;46.070;13.222;2023-04-12T00:46:28;3.20;;;2.72;;
23376;SDS011;14353;46.070;13.222;2023-04-12T00:48:56;3.10;;;2.80;;
23376;SDS011;14353;46.070;13.222;2023-04-12T00:51:22;3.20;;;2.90;;
23376;SDS011;14353;46.070;13.222;2023-04-12T00:53:50;3.22;;;2.92;;
23376;SDS011;14353;46.070;13.222;2023-04-12T00:56:21;3.20;;;2.90;;
23376;SDS011;14353;46.070;13.222;2023-04-12T00:58:48;3.70;;;3.00;;
23376;SDS011;14353;46.070;13.222;2023-04-12T01:01:14;3.58;;;3.00;;
23376;SDS011;14353;46.070;13.222;2023-04-12T01:03:41;3.92;;;2.88;;
23376;SDS011;14353;46.070;13.222;2023-04-12T01:09:26;3.38;;;3.03;;
23376;SDS011;14353;46.070;13.222;2023-04-12T01:15:06;3.53;;;3.10;;
23376;SDS011;14353;46.070;13.222;2023-04-12T01:17:37;4.00;;;2.72;;
23376;SDS011;14353;46.070;13.222;2023-04-12T01:20:16;3.58;;;2.90;;
23376;SDS011;14353;46.070;13.222;2023-04-12T01:28:03;3.45;;;2.85;;
23376;SDS011;14353;46.070;13.222;2023-04-12T01:30:30;3.60;;;3.10;;
23376;SDS011;14353;46.070;13.222;2023-04-12T01:32:58;3.53;;;2.95;;
23376;SDS011;14353;46.070;13.222;2023-04-12T01:35:27;3.20;;;2.90;;
23376;SDS011;14353;46.070;13.222;2023-04-12T01:37:56;3.28;;;2.97;;
23376;SDS011;14353;46.070;13.222;2023-04-12T01:40:23;3.63;;;3.30;;
23376;SDS011;14353;46.070;13.222;2023-04-12T01:43:02;3.40;;;3.03;;
23376;SDS011;14353;46.070;13.222;2023-04-12T01:45:31;3.50;;;3.20;;
23376;SDS011;14353;46.070;13.222;2023-04-12T01:47:58;3.30;;;3.00;;
23376;SDS011;14353;46.070;13.222;2023-04-12T01:50:26;3.83;;;3.10;;
23376;SDS011;14353;46.070;13.222;2023-04-12T01:53:22;3.53;;;3.10;;
23376;SDS011;14353;46.070;13.222;2023-04-12T01:56:00;3.28;;;2.97;;
23376;SDS011;14353;46.070;13.222;2023-04-12T01:58:31;3.40;;;3.10;;
23376;SDS011;14353;46.070;13.222;2023-04-12T02:00:58;3.08;;;2.78;;
23376;SDS011;14353;46.070;13.222;2023-04-12T02:03:27;3.30;;;3.00;;
23376;SDS011;14353;46.070;13.222;2023-04-12T02:05:54;3.60;;;3.20;;
23376;SDS011;14353;46.070;13.222;2023-04-12T02:08:22;3.15;;;2.85;;
23376;SDS011;14353;46.070;13.222;2023-04-12T02:10:48;3.45;;;3.05;;
23376;SDS011;14353;46.070;13.222;2023-04-12T02:13:15;3.42;;;3.00;;
23376;SDS011;14353;46.070;13.222;2023-04-12T02:15:42;3.58;;;3.28;;
23376;SDS011;14353;46.070;13.222;2023-04-12T02:18:08;3.40;;;3.10;;
23376;SDS011;14353;46.070;13.222;2023-04-12T02:20:34;3.28;;;2.97;;
23376;SDS011;14353;46.070;13.222;2023-04-12T02:23:00;3.40;;;3.10;;
23376;SDS011;14353;46.070;13.222;2023-04-12T02:25:26;3.15;;;2.85;;
23376;SDS011;14353;46.070;13.222;2023-04-12T02:27:51;3.45;;;3.05;;
23376;SDS011;14353;46.070;13.222;2023-04-12T02:30:17;3.45;;;3.15;;
23376;SDS011;14353;46.070;13.222;2023-04-12T02:32:43;3.85;;;3.45;;
23376;SDS011;14353;46.070;13.222;2023-04-12T02:35:10;3.67;;;3.38;;
23376;SDS011;14353;46.070;13.222;2023-04-12T02:37:36;3.17;;;2.88;;
23376;SDS011;14353;46.070;13.222;2023-04-12T02:40:03;3.72;;;3.30;;
23376;SDS011;14353;46.070;13.222;2023-04-12T02:42:30;3.47;;;3.15;;
23376;SDS011;14353;46.070;13.222;2023-04-12T02:44:56;3.67;;;3.17;;
23376;SDS011;14353;46.070;13.222;2023-04-12T02:47:22;3.38;;;3.05;;
23376;SDS011;14353;46.070;13.222;2023-04-12T02:49:52;3.50;;;3.20;;
23376;SDS011;14353;46.070;13.222;2023-04-12T02:52:18;2.97;;;2.75;;
23376;SDS011;14353;46.070;13.222;2023-04-12T02:54:44;3.50;;;3.20;;
23376;SDS011;14353;46.070;13.222;2023-04-12T02:57:09;3.33;;;3.00;;
23376;SDS011;14353;46.070;13.222;2023-04-12T02:59:40;3.30;;;3.00;;
23376;SDS011;14353;46.070;13.222;2023-04-12T03:02:06;3.72;;;3.20;;
23376;SDS011;14353;46.070;13.222;2023-04-12T03:04:32;3.40;;;3.10;;
23376;SDS011;14353;46.070;13.222;2023-04-12T03:06:58;3.35;;;3.05;;
23376;SDS011;14353;46.070;13.222;2023-04-12T03:09:23;3.25;;;2.95;;
23376;SDS011;14353;46.070;13.222;2023-04-12T03:11:49;3.22;;;2.92;;
23376;SDS011;14353;46.070;13.222;2023-04-12T03:14:15;3.95;;;3.60;;
23376;SDS011;14353;46.070;13.222;2023-04-12T03:16:41;3.33;;;3.03;;
23376;SDS011;14353;46.070;13.222;2023-04-12T03:19:07;3.33;;;3.03;;
23376;SDS011;14353;46.070;13.222;2023-04-12T03:21:33;3.42;;;3.13;;
23376;SDS011;14353;46.070;13.222;2023-04-12T03:23:59;3.75;;;3.35;;
23376;SDS011;14353;46.070;13.222;2023-04-12T03:26:25;3.97;;;3.05;;
23376;SDS011;14353;46.070;13.222;2023-04-12T03:28:57;3.47;;;3.17;;
23376;SDS011;14353;46.070;13.222;2023-04-12T03:31:25;3.33;;;3.03;;
23376;SDS011;14353;46.070;13.222;2023-04-12T03:33:51;3.15;;;2.85;;
23376;SDS011;14353;46.070;13.222;2023-04-12T03:36:17;3.38;;;3.08;;
23376;SDS011;14353;46.070;13.222;2023-04-12T03:38:45;3.60;;;3.30;;
23376;SDS011;14353;46.070;13.222;2023-04-12T03:41:11;3.10;;;2.80;;
23376;SDS011;14353;46.070;13.222;2023-04-12T03:43:37;3.40;;;3.00;;
23376;SDS011;14353;46.070;13.222;2023-04-12T03:46:03;3.53;;;3.20;;
23376;SDS011;14353;46.070;13.222;2023-04-12T03:48:29;3.67;;;3.38;;
23376;SDS011;14353;46.070;13.222;2023-04-12T03:50:55;3.72;;;3.40;;
23376;SDS011;14353;46.070;13.222;2023-04-12T03:53:26;3.30;;;3.00;;
23376;SDS011;14353;46.070;13.222;2023-04-12T03:55:54;3.38;;;3.08;;
23376;SDS011;14353;46.070;13.222;2023-04-12T03:58:20;3.30;;;3.00;;
23376;SDS011;14353;46.070;13.222;2023-04-12T04:00:46;3.28;;;2.97;;
23376;SDS011;14353;46.070;13.222;2023-04-12T04:03:13;3.72;;;3.20;;
23376;SDS011;14353;46.070;13.222;2023-04-12T04:05:39;3.30;;;3.00;;
23376;SDS011;14353;46.070;13.222;2023-04-12T04:08:05;3.40;;;3.10;;
23376;SDS011;14353;46.070;13.222;2023-04-12T04:10:32;3.15;;;2.85;;
23376;SDS011;14353;46.070;13.222;2023-04-12T04:12:58;3.70;;;3.33;;
23376;SDS011;14353;46.070;13.222;2023-04-12T04:15:24;3.70;;;3.40;;
23376;SDS011;14353;46.070;13.222;2023-04-12T04:17:50;4.07;;;3.28;;
23376;SDS011;14353;46.070;13.222;2023-04-12T04:20:16;3.45;;;3.15;;
23376;SDS011;14353;46.070;13.222;2023-04-12T04:22:43;3.85;;;3.45;;
23376;SDS011;14353;46.070;13.222;2023-04-12T04:25:12;3.47;;;3.17;;
23376;SDS011;14353;46.070;13.222;2023-04-12T04:27:39;3.65;;;3.10;;
23376;SDS011;14353;46.070;13.222;2023-04-12T04:30:06;3.20;;;2.90;;
23376;SDS011;14353;46.070;13.222;2023-04-12T04:32:32;3.30;;;3.00;;
23376;SDS011;14353;46.070;13.222;2023-04-12T04:34:58;3.38;;;3.05;;
23376;SDS011;14353;46.070;13.222;2023-04-12T04:37:24;3.13;;;2.83;;
23376;SDS011;14353;46.070;13.222;2023-04-12T04:39:51;3.30;;;3.00;;
23376;SDS011;14353;46.070;13.222;2023-04-12T04:42:17;3.67;;;2.95;;
23376;SDS011;14353;46.070;13.222;2023-04-12T04:44:42;3.20;;;2.90;;
23376;SDS011;14353;46.070;13.222;2023-04-12T04:47:08;3.30;;;3.00;;
23376;SDS011;14353;46.070;13.222;2023-04-12T04:49:35;3.50;;;3.17;;
23376;SDS011;14353;46.070;13.222;2023-04-12T04:52:01;3.30;;;3.00;;
23376;SDS011;14353;46.070;13.222;2023-04-12T04:54:28;3.53;;;3.22;;
23376;SDS011;14353;46.070;13.222;2023-04-12T04:56:55;3.30;;;3.00;;
23376;SDS011;14353;46.070;13.222;2023-04-12T04:59:21;3.47;;;3.10;;
23376;SDS011;14353;46.070;13.222;2023-04-12T05:01:48;3.40;;;3.10;;
23376;SDS011;14353;46.070;13.222;2023-04-12T05:04:16;3.35;;;3.05;;
23376;SDS011;14353;46.070;13.222;2023-04-12T05:06:41;3.72;;;3.30;;
23376;SDS011;14353;46.070;13.222;2023-04-12T05:09:07;3.55;;;3.25;;
23376;SDS011;14353;46.070;13.222;2023-04-12T05:11:33;4.38;;;3.03;;
23376;SDS011;14353;46.070;13.222;2023-04-12T05:13:59;3.53;;;3.22;;
23376;SDS011;14353;46.070;13.222;2023-04-12T05:16:24;3.30;;;2.95;;
23376;SDS011;14353;46.070;13.222;2023-04-12T05:18:50;3.50;;;3.20;;
23376;SDS011;14353;46.070;13.222;2023-04-12T05:21:15;5.00;;;3.40;;
23376;SDS011;14353;46.070;13.222;2023-04-12T05:23:44;3.63;;;3.33;;
23376;SDS011;14353;46.070;13.222;2023-04-12T05:26:11;3.67;;;3.35;;
23376;SDS011;14353;46.070;13.222;2023-04-12T05:28:37;4.05;;;3.25;;
23376;SDS011;14353;46.070;13.222;2023-04-12T05:31:03;5.13;;;3.75;;
23376;SDS011;14353;46.070;13.222;2023-04-12T05:33:30;3.90;;;3.38;;
23376;SDS011;14353;46.070;13.222;2023-04-12T05:35:55;4.00;;;3.60;;
23376;SDS011;14353;46.070;13.222;2023-04-12T05:38:21;4.10;;;3.70;;
23376;SDS011;14353;46.070;13.222;2023-04-12T05:40:48;4.55;;;4.07;;
23376;SDS011;14353;46.070;13.222;2023-04-12T05:43:16;4.65;;;4.22;;
23376;SDS011;14353;46.070;13.222;2023-04-12T05:45:42;20.42;;;5.07;;
23376;SDS011;14353;46.070;13.222;2023-04-12T05:48:08;66.20;;;6.50;;
23376;SDS011;14353;46.070;13.222;2023-04-12T05:50:33;107.85;;;8.32;;
23376;SDS011;14353;46.070;13.222;2023-04-12T05:53:00;54.70;;;6.63;;
23376;SDS011;14353;46.070;13.222;2023-04-12T05:55:26;61.28;;;7.25;;
23376;SDS011;14353;46.070;13.222;2023-04-12T05:57:53;67.50;;;7.68;;
23376;SDS011;14353;46.070;13.222;2023-04-12T06:00:18;61.33;;;7.72;;
23376;SDS011;14353;46.070;13.222;2023-04-12T06:02:46;52.38;;;7.03;;
23376;SDS011;14353;46.070;13.222;2023-04-12T06:05:14;70.43;;;7.95;;
23376;SDS011;14353;46.070;13.222;2023-04-12T06:07:42;46.25;;;6.97;;
23376;SDS011;14353;46.070;13.222;2023-04-12T06:10:16;40.30;;;6.60;;
23376;SDS011;14353;46.070;13.222;2023-04-12T06:12:44;38.45;;;6.03;;
23376;SDS011;14353;46.070;13.222;2023-04-12T06:15:12;38.70;;;6.45;;
23376;SDS011;14353;46.070;13.222;2023-04-12T06:17:39;25.98;;;5.68;;
23376;SDS011;14353;46.070;13.222;2023-04-12T06:20:06;29.00;;;5.53;;
23376;SDS011;14353;46.070;13.222;2023-04-12T06:22:33;29.15;;;5.97;;
23376;SDS011;14353;46.070;13.222;2023-04-12T06:25:00;26.95;;;5.88;;
23376;SDS011;14353;46.070;13.222;2023-04-12T06:27:26;20.52;;;5.25;;
23376;SDS011;14353;46.070;13.222;2023-04-12T06:29:51;18.13;;;5.43;;
23376;SDS011;14353;46.070;13.222;2023-04-12T06:32:17;23.05;;;5.28;;
23376;SDS011;14353;46.070;13.222;2023-04-12T06:34:43;15.18;;;4.82;;
23376;SDS011;14353;46.070;13.222;2023-04-12T06:37:09;10.13;;;4.90;;
23376;SDS011;14353;46.070;13.222;2023-04-12T06:39:34;15.68;;;5.15;;
23376;SDS011;14353;46.070;13.222;2023-04-12T06:42:01;15.20;;;4.82;;
23376;SDS011;14353;46.070;13.222;2023-04-12T06:44:27;13.50;;;4.85;;
23376;SDS011;14353;46.070;13.222;2023-04-12T06:46:52;15.82;;;4.75;;
23376;SDS011;14353;46.070;13.222;2023-04-12T06:49:18;15.15;;;5.25;;
23376;SDS011;14353;46.070;13.222;2023-04-12T06:51:44;11.52;;;4.45;;
23376;SDS011;14353;46.070;13.222;2023-04-12T06:54:10;11.45;;;4.93;;
23376;SDS011;14353;46.070;13.222;2023-04-12T06:56:37;12.27;;;4.90;;
23376;SDS011;14353;46.070;13.222;2023-04-12T06:59:03;10.25;;;4.22;;
23376;SDS011;14353;46.070;13.222;2023-04-12T07:01:29;12.23;;;4.57;;
23376;SDS011;14353;46.070;13.222;2023-04-12T07:03:55;14.18;;;4.70;;
23376;SDS011;14353;46.070;13.222;2023-04-12T07:06:21;8.57;;;4.47;;
23376;SDS011;14353;46.070;13.222;2023-04-12T07:08:46;11.75;;;4.35;;
23376;SDS011;14353;46.070;13.222;2023-04-12T07:11:12;11.63;;;4.25;;
23376;SDS011;14353;46.070;13.222;2023-04-12T07:13:38;11.27;;;4.53;;
23376;SDS011;14353;46.070;13.222;2023-04-12T07:16:05;12.75;;;4.35;;
23376;SDS011;14353;46.070;13.222;2023-04-12T07:18:30;15.80;;;4.57;;
23376;SDS011;14353;46.070;13.222;2023-04-12T07:20:56;16.65;;;4.45;;
23376;SDS011;14353;46.070;13.222;2023-04-12T07:23:22;14.60;;;4.68;;
23376;SDS011;14353;46.070;13.222;2023-04-12T07:25:49;15.88;;;5.00;;
23376;SDS011;14353;46.070;13.222;2023-04-12T07:28:15;16.67;;;4.47;;
23376;SDS011;14353;46.070;13.222;2023-04-12T07:30:43;17.35;;;4.90;;
23376;SDS011;14353;46.070;13.222;2023-04-12T07:33:09;12.80;;;4.20;;
23376;SDS011;14353;46.070;13.222;2023-04-12T07:35:35;8.70;;;4.18;;
23376;SDS011;14353;46.070;13.222;2023-04-12T07:38:00;16.10;;;4.10;;
23376;SDS011;14353;46.070;13.222;2023-04-12T07:40:26;9.00;;;4.40;;
23376;SDS011;14353;46.070;13.222;2023-04-12T07:42:52;14.38;;;4.53;;
23376;SDS011;14353;46.070;13.222;2023-04-12T07:45:18;10.13;;;4.32;;
23376;SDS011;14353;46.070;13.222;2023-04-12T07:47:44;13.32;;;4.00;;
23376;SDS011;14353;46.070;13.222;2023-04-12T07:50:10;8.85;;;3.60;;
23376;SDS011;14353;46.070;13.222;2023-04-12T07:52:37;12.02;;;4.10;;
23376;SDS011;14353;46.070;13.222;2023-04-12T07:55:03;12.85;;;4.32;;
23376;SDS011;14353;46.070;13.222;2023-04-12T07:57:29;7.82;;;4.35;;
23376;SDS011;14353;46.070;13.222;2023-04-12T07:59:55;6.95;;;3.97;;
23376;SDS011;14353;46.070;13.222;2023-04-12T08:02:21;8.45;;;3.65;;
23376;SDS011;14353;46.070;13.222;2023-04-12T08:04:53;8.00;;;3.67;;
23376;SDS011;14353;46.070;13.222;2023-04-12T08:07:19;8.98;;;4.20;;
23376;SDS011;14353;46.070;13.222;2023-04-12T08:09:46;8.85;;;3.53;;
23376;SDS011;14353;46.070;13.222;2023-04-12T08:12:12;11.18;;;3.45;;
23376;SDS011;14353;46.070;13.222;2023-04-12T08:14:39;8.60;;;3.40;;
23376;SDS011;14353;46.070;13.222;2023-04-12T08:17:04;7.38;;;3.38;;
23376;SDS011;14353;46.070;13.222;2023-04-12T08:19:30;8.27;;;3.58;;
23376;SDS011;14353;46.070;13.222;2023-04-12T08:21:56;8.43;;;3.60;;
23376;SDS011;14353;46.070;13.222;2023-04-12T08:24:23;14.82;;;3.97;;
23376;SDS011;14353;46.070;13.222;2023-04-12T08:26:51;8.40;;;3.85;;
23376;SDS011;14353;46.070;13.222;2023-04-12T08:29:17;9.60;;;3.83;;
23376;SDS011;14353;46.070;13.222;2023-04-12T08:31:43;12.13;;;3.80;;
23376;SDS011;14353;46.070;13.222;2023-04-12T08:34:09;12.02;;;3.65;;
23376;SDS011;14353;46.070;13.222;2023-04-12T08:36:35;8.63;;;3.70;;
23376;SDS011;14353;46.070;13.222;2023-04-12T08:39:01;6.07;;;3.10;;
23376;SDS011;14353;46.070;13.222;2023-04-12T08:41:27;11.95;;;3.88;;
23376;SDS011;14353;46.070;13.222;2023-04-12T08:43:53;13.13;;;4.00;;
23376;SDS011;14353;46.070;13.222;2023-04-12T08:46:22;11.85;;;4.10;;
23376;SDS011;14353;46.070;13.222;2023-04-12T08:48:48;7.22;;;3.42;;
23376;SDS011;14353;46.070;13.222;2023-04-12T08:51:18;7.40;;;3.70;;
23376;SDS011;14353;46.070;13.222;2023-04-12T08:53:45;10.20;;;3.90;;
23376;SDS011;14353;46.070;13.222;2023-04-12T08:56:11;8.25;;;3.35;;
23376;SDS011;14353;46.070;13.222;2023-04-12T08:58:38;9.07;;;3.10;;
23376;SDS011;14353;46.070;13.222;2023-04-12T09:01:13;11.73;;;3.45;;
23376;SDS011;14353;46.070;13.222;2023-04-12T09:03:43;14.18;;;3.92;;
23376;SDS011;14353;46.070;13.222;2023-04-12T09:06:13;9.88;;;3.70;;
23376;SDS011;14353;46.070;13.222;2023-04-12T09:08:52;18.38;;;3.50;;
23376;SDS011;14353;46.070;13.222;2023-04-12T09:11:22;8.98;;;3.20;;
23376;SDS011;14353;46.070;13.222;2023-04-12T09:13:49;15.07;;;3.47;;
23376;SDS011;14353;46.070;13.222;2023-04-12T09:16:16;6.43;;;2.85;;
23376;SDS011;14353;46.070;13.222;2023-04-12T09:18:50;9.20;;;3.10;;
23376;SDS011;14353;46.070;13.222;2023-04-12T09:21:16;10.15;;;3.33;;
23376;SDS011;14353;46.070;13.222;2023-04-12T09:23:42;13.70;;;3.53;;
23376;SDS011;14353;46.070;13.222;2023-04-12T09:26:08;14.38;;;3.60;;
23376;SDS011;14353;46.070;13.222;2023-04-12T09:28:50;8.75;;;3.20;;
23376;SDS011;14353;46.070;13.222;2023-04-12T09:31:16;7.88;;;3.00;;
23376;SDS011;14353;46.070;13.222;2023-04-12T09:33:42;8.15;;;3.47;;
23376;SDS011;14353;46.070;13.222;2023-04-12T09:36:08;9.48;;;3.35;;
23376;SDS011;14353;46.070;13.222;2023-04-12T09:38:37;8.05;;;2.83;;
23376;SDS011;14353;46.070;13.222;2023-04-12T09:43:41;7.00;;;2.92;;
23376;SDS011;14353;46.070;13.222;2023-04-12T09:46:10;7.13;;;2.90;;
23376;SDS011;14353;46.070;13.222;2023-04-12T09:48:41;11.82;;;3.10;;
23376;SDS011;14353;46.070;13.222;2023-04-12T09:51:22;16.13;;;4.00;;
23376;SDS011;14353;46.070;13.222;2023-04-12T09:53:50;12.60;;;3.80;;
23376;SDS011;14353;46.070;13.222;2023-04-12T09:56:17;16.58;;;4.13;;
23376;SDS011;14353;46.070;13.222;2023-04-12T09:58:47;13.98;;;4.70;;
23376;SDS011;14353;46.070;13.222;2023-04-12T10:01:17;13.50;;;4.00;;
23376;SDS011;14353;46.070;13.222;2023-04-12T10:03:44;12.02;;;3.65;;
23376;SDS011;14353;46.070;13.222;2023-04-12T10:06:10;12.25;;;3.63;;
23376;SDS011;14353;46.070;13.222;2023-04-12T10:08:36;11.98;;;3.25;;
23376;SDS011;14353;46.070;13.222;2023-04-12T10:11:03;17.95;;;3.80;;
23376;SDS011;14353;46.070;13.222;2023-04-12T10:13:31;15.95;;;3.55;;
23376;SDS011;14353;46.070;13.222;2023-04-12T10:15:59;11.40;;;3.28;;
23376;SDS011;14353;46.070;13.222;2023-04-12T10:18:30;12.60;;;3.72;;
23376;SDS011;14353;46.070;13.222;2023-04-12T10:21:02;12.80;;;3.55;;
23376;SDS011;14353;46.070;13.222;2023-04-12T10:23:32;15.48;;;3.65;;
23376;SDS011;14353;46.070;13.222;2023-04-12T10:26:00;11.88;;;3.50;;
23376;SDS011;14353;46.070;13.222;2023-04-12T10:28:28;12.10;;;3.40;;
23376;SDS011;14353;46.070;13.222;2023-04-12T10:30:57;11.98;;;3.45;;
23376;SDS011;14353;46.070;13.222;2023-04-12T10:33:29;12.10;;;3.65;;
23376;SDS011;14353;46.070;13.222;2023-04-12T10:35:59;10.48;;;3.50;;
23376;SDS011;14353;46.070;13.222;2023-04-12T10:38:43;9.55;;;3.45;;
23376;SDS011;14353;46.070;13.222;2023-04-12T10:41:30;9.73;;;3.50;;
23376;SDS011;14353;46.070;13.222;2023-04-12T10:44:22;9.82;;;3.55;;
23376;SDS011;14353;46.070;13.222;2023-04-12T10:46:49;11.53;;;3.50;;
23376;SDS011;14353;46.070;13.222;2023-04-12T10:49:15;8.80;;;2.75;;
23376;SDS011;14353;46.070;13.222;2023-04-12T10:54:29;8.57;;;3.13;;
23376;SDS011;14353;46.070;13.222;2023-04-12T10:56:59;9.07;;;3.42;;
23376;SDS011;14353;46.070;13.222;2023-04-12T10:59:25;12.63;;;3.67;;
23376;SDS011;14353;46.070;13.222;2023-04-12T11:02:18;8.45;;;3.20;;
23376;SDS011;14353;46.070;13.222;2023-04-12T11:07:37;10.07;;;3.45;;
23376;SDS011;14353;46.070;13.222;2023-04-12T11:10:14;9.98;;;3.17;;
23376;SDS011;14353;46.070;13.222;2023-04-12T11:12:49;13.10;;;3.15;;
23376;SDS011;14353;46.070;13.222;2023-04-12T11:15:19;6.68;;;3.00;;
23376;SDS011;14353;46.070;13.222;2023-04-12T11:17:58;10.10;;;3.30;;
23376;SDS011;14353;46.070;13.222;2023-04-12T11:20:25;11.20;;;3.38;;
23376;SDS011;14353;46.070;13.222;2023-04-12T11:22:54;7.97;;;3.13;;
23376;SDS011;14353;46.070;13.222;2023-04-12T11:25:22;9.88;;;3.40;;
23376;SDS011;14353;46.070;13.222;2023-04-12T11:27:48;10.85;;;3.50;;
23376;SDS011;14353;46.070;13.222;2023-04-12T11:30:19;13.27;;;3.55;;
23376;SDS011;14353;46.070;13.222;2023-04-12T11:32:45;10.40;;;3.55;;
23376;SDS011;14353;46.070;13.222;2023-04-12T11:35:13;5.80;;;3.22;;
23376;SDS011;14353;46.070;13.222;2023-04-12T11:37:39;10.55;;;3.78;;
23376;SDS011;14353;46.070;13.222;2023-04-12T11:40:05;10.00;;;3.47;;
23376;SDS011;14353;46.070;13.222;2023-04-12T11:42:33;6.35;;;3.72;;
23376;SDS011;14353;46.070;13.222;2023-04-12T11:44:59;12.55;;;3.67;;
23376;SDS011;14353;46.070;13.222;2023-04-12T11:47:25;11.35;;;3.88;;
23376;SDS011;14353;46.070;13.222;2023-04-12T11:49:54;5.65;;;3.08;;
23376;SDS011;14353;46.070;13.222;2023-04-12T11:52:26;9.50;;;3.10;;
23376;SDS011;14353;46.070;13.222;2023-04-12T11:54:59;6.47;;;3.67;;
23376;SDS011;14353;46.070;13.222;2023-04-12T11:57:25;9.60;;;3.30;;
23376;SDS011;14353;46.070;13.222;2023-04-12T11:59:55;10.10;;;3.30;;
23376;SDS011;14353;46.070;13.222;2023-04-12T12:02:21;13.63;;;3.20;;
23376;SDS011;14353;46.070;13.222;2023-04-12T12:04:47;10.70;;;3.60;;
23376;SDS011;14353;46.070;13.222;2023-04-12T12:07:17;8.02;;;3.63;;
23376;SDS011;14353;46.070;13.222;2023-04-12T12:09:44;7.45;;;3.40;;
23376;SDS011;14353;46.070;13.222;2023-04-12T12:12:11;5.18;;;3.28;;
23376;SDS011;14353;46.070;13.222;2023-04-12T12:14:37;8.70;;;3.38;;
23376;SDS011;14353;46.070;13.222;2023-04-12T12:17:11;8.13;;;3.28;;
23376;SDS011;14353;46.070;13.222;2023-04-12T12:19:40;7.20;;;3.70;;
23376;SDS011;14353;46.070;13.222;2023-04-12T12:22:11;8.43;;;3.75;;
23376;SDS011;14353;46.070;13.222;2023-04-12T12:24:38;7.53;;;3.65;;
23376;SDS011;14353;46.070;13.222;2023-04-12T12:27:09;11.45;;;3.40;;
23376;SDS011;14353;46.070;13.222;2023-04-12T12:29:36;11.23;;;3.50;;
23376;SDS011;14353;46.070;13.222;2023-04-12T12:32:08;5.22;;;3.40;;
23376;SDS011;14353;46.070;13.222;2023-04-12T12:34:34;5.22;;;3.80;;
23376;SDS011;14353;46.070;13.222;2023-04-12T12:37:00;6.57;;;3.63;;
23376;SDS011;14353;46.070;13.222;2023-04-12T12:39:26;6.65;;;3.28;;
23376;SDS011;14353;46.070;13.222;2023-04-12T12:41:53;6.65;;;3.60;;
23376;SDS011;14353;46.070;13.222;2023-04-12T12:44:21;9.35;;;3.83;;
23376;SDS011;14353;46.070;13.222;2023-04-12T12:46:49;7.20;;;3.40;;
23376;SDS011;14353;46.070;13.222;2023-04-12T12:49:15;4.55;;;3.40;;
23376;SDS011;14353;46.070;13.222;2023-04-12T12:51:42;5.07;;;3.33;;
23376;SDS011;14353;46.070;13.222;2023-04-12T12:54:07;5.93;;;3.20;;
23376;SDS011;14353;46.070;13.222;2023-04-12T12:56:33;7.15;;;3.40;;
23376;SDS011;14353;46.070;13.222;2023-04-12T12:59:02;10.07;;;3.42;;
23376;SDS011;14353;46.070;13.222;2023-04-12T13:01:27;6.72;;;3.28;;
23376;SDS011;14353;46.070;13.222;2023-04-12T13:03:53;7.18;;;3.63;;
23376;SDS011;14353;46.070;13.222;2023-04-12T13:06:19;8.70;;;3.30;;
23376;SDS011;14353;46.070;13.222;2023-04-12T13:08:46;14.50;;;4.07;;
23376;SDS011;14353;46.070;13.222;2023-04-12T13:11:11;10.38;;;3.80;;
23376;SDS011;14353;46.070;13.222;2023-04-12T13:13:37;10.55;;;3.92;;
23376;SDS011;14353;46.070;13.222;2023-04-12T13:16:03;9.15;;;3.88;;
23376;SDS011;14353;46.070;13.222;2023-04-12T13:18:29;10.07;;;3.97;;
23376;SDS011;14353;46.070;13.222;2023-04-12T13:20:55;15.05;;;4.07;;
23376;SDS011;14353;46.070;13.222;2023-04-12T13:23:20;10.40;;;4.07;;
23376;SDS011;14353;46.070;13.222;2023-04-12T13:25:46;141.95;;;9.80;;
23376;SDS011;14353;46.070;13.222;2023-04-12T13:28:12;84.30;;;7.07;;
23376;SDS011;14353;46.070;13.222;2023-04-12T13:30:40;62.95;;;5.82;;
23376;SDS011;14353;46.070;13.222;2023-04-12T13:33:06;54.67;;;6.75;;
23376;SDS011;14353;46.070;13.222;2023-04-12T13:35:32;36.03;;;5.43;;
23376;SDS011;14353;46.070;13.222;2023-04-12T13:37:58;33.88;;;4.93;;
23376;SDS011;14353;46.070;13.222;2023-04-12T13:40:24;50.67;;;5.88;;
23376;SDS011;14353;46.070;13.222;2023-04-12T13:42:49;37.88;;;5.75;;
23376;SDS011;14353;46.070;13.222;2023-04-12T13:45:15;53.40;;;5.63;;
23376;SDS011;14353;46.070;13.222;2023-04-12T13:47:41;40.92;;;5.22;;
23376;SDS011;14353;46.070;13.222;2023-04-12T13:50:07;39.72;;;5.30;;
23376;SDS011;14353;46.070;13.222;2023-04-12T13:52:33;33.85;;;4.65;;
23376;SDS011;14353;46.070;13.222;2023-04-12T13:54:58;32.20;;;4.90;;
23376;SDS011;14353;46.070;13.222;2023-04-12T13:57:24;41.17;;;5.13;;
23376;SDS011;14353;46.070;13.222;2023-04-12T13:59:50;39.70;;;5.18;;
23376;SDS011;14353;46.070;13.222;2023-04-12T14:02:16;36.22;;;5.20;;
23376;SDS011;14353;46.070;13.222;2023-04-12T14:04:51;21.98;;;4.32;;
23376;SDS011;14353;46.070;13.222;2023-04-12T14:07:18;27.40;;;4.90;;
23376;SDS011;14353;46.070;13.222;2023-04-12T14:09:44;32.88;;;5.32;;
23376;SDS011;14353;46.070;13.222;2023-04-12T14:12:12;27.55;;;4.25;;
23376;SDS011;14353;46.070;13.222;2023-04-12T14:14:38;27.50;;;4.63;;
23376;SDS011;14353;46.070;13.222;2023-04-12T14:17:04;30.50;;;4.72;;
23376;SDS011;14353;46.070;13.222;2023-04-12T14:19:30;25.67;;;4.63;;
23376;SDS011;14353;46.070;13.222;2023-04-12T14:21:56;29.83;;;4.72;;
23376;SDS011;14353;46.070;13.222;2023-04-12T14:24:22;23.23;;;4.45;;
23376;SDS011;14353;46.070;13.222;2023-04-12T14:26:48;24.13;;;4.28;;
23376;SDS011;14353;46.070;13.222;2023-04-12T14:29:17;29.05;;;4.00;;
23376;SDS011;14353;46.070;13.222;2023-04-12T14:31:43;23.85;;;4.20;;
23376;SDS011;14353;46.070;13.222;2023-04-12T14:34:08;23.85;;;4.20;;
23376;SDS011;14353;46.070;13.222;2023-04-12T14:36:34;24.80;;;4.03;;
23376;SDS011;14353;46.070;13.222;2023-04-12T14:39:00;20.30;;;4.47;;
23376;SDS011;14353;46.070;13.222;2023-04-12T14:41:28;19.67;;;4.32;;
23376;SDS011;14353;46.070;13.222;2023-04-12T14:43:54;11.45;;;3.63;;
23376;SDS011;14353;46.070;13.222;2023-04-12T14:46:21;22.88;;;3.97;;
23376;SDS011;14353;46.070;13.222;2023-04-12T14:48:47;19.20;;;3.90;;